sensor_id;sensor_type;location;lat;lon;timestamp;pressure;altitude;pressure_sealevel;temperature;humidity
10476;BME280;26166;48.264;11.436;2023-04-01T00:00:29;94969.09;;;11.18;57.18
10476;BME280;26166;48.264;11.436;2023-04-01T00:03:29;94966.88;;;11.15;57.55
10476;BME280;26166;48.264;11.436;2023-04-01T00:06:30;94964.66;;;11.12;57.29
10476;BME280;26166;48.264;11.436;2023-04-01T00:09:31;94962.03;;;11.12;57.56
10476;BME280;26166;48.264;11.436;2023-04-01T00:12:31;94969.91;;;11.12;57.18
10476;BME280;26166;48.264;11.436;2023-04-01T00:15:31;94968.69;;;11.15;57.51
10476;BME280;26166;48.264;11.436;2023-04-01T00:18:31;94952.91;;;11.15;57.32
10476;BME280;26166;48.264;11.436;2023-04-01T00:21:32;94953.94;;;11.14;57.50
10476;BME280;26166;48.264;11.436;2023-04-01T00:24:32;94945.66;;;11.17;56.98
10476;BME280;26166;48.264;11.436;2023-04-01T00:27:32;94946.47;;;11.17;57.19
10476;BME280;26166;48.264;11.436;2023-04-01T00:30:32;94962.63;;;11.14;57.05
10476;BME280;26166;48.264;11.436;2023-04-01T00:33:33;94959.59;;;11.17;56.94
10476;BME280;26166;48.264;11.436;2023-04-01T00:36:33;94949.31;;;11.16;57.18
10476;BME280;26166;48.264;11.436;2023-04-01T00:39:33;94959.41;;;11.12;57.10
10476;BME280;26166;48.264;11.436;2023-04-01T00:42:34;94960.22;;;11.13;57.47
10476;BME280;26166;48.264;11.436;2023-04-01T00:45:35;94956.78;;;11.12;57.55
10476;BME280;26166;48.264;11.436;2023-04-01T00:48:38;94961.44;;;11.17;57.14
10476;BME280;26166;48.264;11.436;2023-04-01T00:51:39;94955.75;;;11.13;57.44
10476;BME280;26166;48.264;11.436;2023-04-01T00:54:41;94952.50;;;11.11;57.59
10476;BME280;26166;48.264;11.436;2023-04-01T00:57:42;94942.41;;;11.08;57.66
10476;BME280;26166;48.264;11.436;2023-04-01T01:00:45;94945.03;;;11.08;57.43
10476;BME280;26166;48.264;11.436;2023-04-01T01:03:46;94949.28;;;11.09;57.63
10476;BME280;26166;48.264;11.436;2023-04-01T01:06:50;94942.00;;;11.11;57.53
10476;BME280;26166;48.264;11.436;2023-04-01T01:16:25;94935.34;;;11.08;57.44
10476;BME280;26166;48.264;11.436;2023-04-01T01:19:44;94932.72;;;11.08;57.42
10476;BME280;26166;48.264;11.436;2023-04-01T01:32:35;94942.41;;;11.08;57.71
10476;BME280;26166;48.264;11.436;2023-04-01T01:35:43;94936.16;;;11.09;57.43
10476;BME280;26166;48.264;11.436;2023-04-01T01:38:46;94942.41;;;11.08;57.50
10476;BME280;26166;48.264;11.436;2023-04-01T01:41:48;94933.91;;;11.06;57.59
10476;BME280;26166;48.264;11.436;2023-04-01T01:44:49;94931.28;;;11.06;57.46
10476;BME280;26166;48.264;11.436;2023-04-01T01:47:50;94930.69;;;11.04;57.76
10476;BME280;26166;48.264;11.436;2023-04-01T01:50:51;94944.84;;;11.03;57.55
10476;BME280;26166;48.264;11.436;2023-04-01T01:53:52;94941.19;;;11.04;57.52
10476;BME280;26166;48.264;11.436;2023-04-01T01:56:55;94948.28;;;11.03;57.61
10476;BME280;26166;48.264;11.436;2023-04-01T02:00:03;94953.72;;;11.02;57.58
10476;BME280;26166;48.264;11.436;2023-04-01T02:03:12;94955.75;;;11.00;57.57
10476;BME280;26166;48.264;11.436;2023-04-01T02:06:15;94943.63;;;10.99;57.57
10476;BME280;26166;48.264;11.436;2023-04-01T02:09:17;94942.22;;;11.03;57.11
10476;BME280;26166;48.264;11.436;2023-04-01T02:12:17;94959.38;;;11.05;57.39
10476;BME280;26166;48.264;11.436;2023-04-01T02:15:19;94949.69;;;11.06;57.35
10476;BME280;26166;48.264;11.436;2023-04-01T02:18:21;94944.41;;;11.06;57.13
10476;BME280;26166;48.264;11.436;2023-04-01T02:21:22;94949.69;;;11.06;57.06
10476;BME280;26166;48.264;11.436;2023-04-01T02:24:24;94944.41;;;11.06;57.13
10476;BME280;26166;48.264;11.436;2023-04-01T02:27:26;94953.31;;;11.05;57.27
10476;BME280;26166;48.264;11.436;2023-04-01T02:30:27;94948.28;;;11.03;57.02
10476;BME280;26166;48.264;11.436;2023-04-01T02:33:29;94946.88;;;11.07;56.94
10476;BME280;26166;48.264;11.436;2023-04-01T02:36:30;94962.00;;;11.05;57.17
10476;BME280;26166;48.264;11.436;2023-04-01T02:39:31;94956.97;;;11.04;57.17
10476;BME280;26166;48.264;11.436;2023-04-01T02:42:32;94950.09;;;11.03;57.23
10476;BME280;26166;48.264;11.436;2023-04-01T02:45:32;94956.97;;;11.04;57.03
10476;BME280;26166;48.264;11.436;2023-04-01T02:48:32;94954.13;;;11.05;57.00
10476;BME280;26166;48.264;11.436;2023-04-01T02:51:32;94961.00;;;11.06;56.58
10476;BME280;26166;48.264;11.436;2023-04-01T02:54:33;94963.03;;;11.04;57.17
10476;BME280;26166;48.264;11.436;2023-04-01T02:57:33;94969.47;;;11.02;56.98
10476;BME280;26166;48.264;11.436;2023-04-01T03:00:33;94980.63;;;11.04;57.15
10476;BME280;26166;48.264;11.436;2023-04-01T03:03:33;94970.31;;;11.09;56.83
10476;BME280;26166;48.264;11.436;2023-04-01T03:06:34;94970.31;;;11.09;56.78
10476;BME280;26166;48.264;11.436;2023-04-01T03:09:34;94968.69;;;11.08;57.06
10476;BME280;26166;48.264;11.436;2023-04-01T03:12:34;94971.13;;;11.03;56.95
10476;BME280;26166;48.264;11.436;2023-04-01T03:15:35;94968.06;;;11.06;56.78
10476;BME280;26166;48.264;11.436;2023-04-01T03:18:35;94971.72;;;11.05;57.07
10476;BME280;26166;48.264;11.436;2023-04-01T03:21:36;94968.28;;;11.04;57.06
10476;BME280;26166;48.264;11.436;2023-04-01T03:24:36;94976.38;;;11.03;57.07
10476;BME280;26166;48.264;11.436;2023-04-01T03:27:36;94984.06;;;11.04;57.02
10476;BME280;26166;48.264;11.436;2023-04-01T03:30:36;94980.63;;;11.04;56.90
10476;BME280;26166;48.264;11.436;2023-04-01T03:33:37;94987.47;;;11.05;56.44
10476;BME280;26166;48.264;11.436;2023-04-01T03:36:37;94989.72;;;11.08;56.19
10476;BME280;26166;48.264;11.436;2023-04-01T03:39:37;94998.81;;;11.05;56.27
10476;BME280;26166;48.264;11.436;2023-04-01T03:42:37;94995.38;;;11.05;56.14
10476;BME280;26166;48.264;11.436;2023-04-01T03:45:47;94993.53;;;11.05;56.50
10476;BME280;26166;48.264;11.436;2023-04-01T03:48:47;94997.19;;;11.04;56.20
10476;BME280;26166;48.264;11.436;2023-04-01T03:51:47;94993.75;;;11.04;56.24
10476;BME280;26166;48.264;11.436;2023-04-01T03:54:47;94998.22;;;11.03;55.98
10476;BME280;26166;48.264;11.436;2023-04-01T03:57:47;94995.78;;;11.08;56.00
10476;BME280;26166;48.264;11.436;2023-04-01T04:00:48;94998.81;;;11.05;56.11
10476;BME280;26166;48.264;11.436;2023-04-01T04:03:48;95003.25;;;11.05;56.12
10476;BME280;26166;48.264;11.436;2023-04-01T04:06:49;94994.16;;;11.07;55.84
10476;BME280;26166;48.264;11.436;2023-04-01T04:09:50;95004.88;;;11.06;55.92
10476;BME280;26166;48.264;11.436;2023-04-01T04:12:50;95000.63;;;11.05;56.13
10476;BME280;26166;48.264;11.436;2023-04-01T04:15:51;95001.84;;;11.02;56.43
10476;BME280;26166;48.264;11.436;2023-04-01T04:18:51;95003.03;;;11.00;56.41
10476;BME280;26166;48.264;11.436;2023-04-01T04:21:51;95007.66;;;10.98;56.13
10476;BME280;26166;48.264;11.436;2023-04-01T04:24:51;95006.25;;;11.02;56.48
10476;BME280;26166;48.264;11.436;2023-04-01T04:27:51;95009.31;;;10.99;56.39
10476;BME280;26166;48.264;11.436;2023-04-01T04:30:52;95007.66;;;10.98;56.40
10476;BME280;26166;48.264;11.436;2023-04-01T04:33:52;95006.69;;;10.99;56.42
10476;BME280;26166;48.264;11.436;2023-04-01T04:36:53;95009.31;;;10.99;56.80
10476;BME280;26166;48.264;11.436;2023-04-01T04:39:53;95005.03;;;10.98;56.85
10476;BME280;26166;48.264;11.436;2023-04-01T04:42:53;95010.94;;;11.00;57.01
10476;BME280;26166;48.264;11.436;2023-04-01T04:45:54;95009.09;;;10.94;57.43
10476;BME280;26166;48.264;11.436;2023-04-01T04:48:54;95007.47;;;10.93;57.90
10476;BME280;26166;48.264;11.436;2023-04-01T04:51:54;95013.53;;;10.93;57.72
10476;BME280;26166;48.264;11.436;2023-04-01T04:54:55;95005.47;;;10.95;57.52
10476;BME280;26166;48.264;11.436;2023-04-01T04:57:55;95008.28;;;11.00;57.55
10476;BME280;26166;48.264;11.436;2023-04-01T05:00:55;95003.03;;;11.00;57.96
10476;BME280;26166;48.264;11.436;2023-04-01T05:03:55;95006.69;;;10.99;57.47
10476;BME280;26166;48.264;11.436;2023-04-01T05:06:55;95004.06;;;10.99;57.35
10476;BME280;26166;48.264;11.436;2023-04-01T05:09:56;95003.03;;;11.00;57.68
10476;BME280;26166;48.264;11.436;2023-04-01T05:12:56;94997.78;;;11.00;57.52
10476;BME280;26166;48.264;11.436;2023-04-01T05:15:59;95014.75;;;10.97;57.69
10476;BME280;26166;48.264;11.436;2023-04-01T05:18:59;95015.97;;;10.95;57.62
10476;BME280;26166;48.264;11.436;2023-04-01T05:22:00;95008.91;;;10.95;57.22
10476;BME280;26166;48.264;11.436;2023-04-01T05:25:00;95016.56;;;10.97;57.27
10476;BME280;26166;48.264;11.436;2023-04-01T05:28:00;95017.19;;;10.99;57.23
10476;BME280;26166;48.264;11.436;2023-04-01T05:31:01;95009.09;;;11.00;57.54
10476;BME280;26166;48.264;11.436;2023-04-01T05:34:01;95018.81;;;11.00;57.33
10476;BME280;26166;48.264;11.436;2023-04-01T05:37:05;95003.03;;;11.00;57.33
10476;BME280;26166;48.264;11.436;2023-04-01T05:40:07;95006.69;;;10.99;57.20
10476;BME280;26166;48.264;11.436;2023-04-01T05:43:07;95025.25;;;10.97;57.06
10476;BME280;26166;48.264;11.436;2023-04-01T05:46:08;95005.88;;;10.98;57.02
10476;BME280;26166;48.264;11.436;2023-04-01T05:49:08;95008.69;;;10.97;56.81
10476;BME280;26166;48.264;11.436;2023-04-01T05:52:08;95015.97;;;10.95;57.11
10476;BME280;26166;48.264;11.436;2023-04-01T05:55:16;95012.94;;;10.91;57.10
10476;BME280;26166;48.264;11.436;2023-04-01T05:58:16;95011.91;;;10.92;57.14
10476;BME280;26166;48.264;11.436;2023-04-01T06:01:16;95012.31;;;10.96;56.89
10476;BME280;26166;48.264;11.436;2023-04-01T06:04:17;95018.59;;;10.95;56.39
10476;BME280;26166;48.264;11.436;2023-04-01T06:07:18;95015.97;;;10.95;56.75
10476;BME280;26166;48.264;11.436;2023-04-01T06:10:19;95026.91;;;10.98;56.47
10476;BME280;26166;48.264;11.436;2023-04-01T06:16:51;95013.16;;;11.03;55.98
10476;BME280;26166;48.264;11.436;2023-04-01T06:20:12;95010.94;;;11.00;56.31
10476;BME280;26166;48.264;11.436;2023-04-01T06:26:18;95007.50;;;10.99;55.75
10476;BME280;26166;48.264;11.436;2023-04-01T06:29:29;95013.75;;;10.98;56.10
10476;BME280;26166;48.264;11.436;2023-04-01T06:35:44;95013.56;;;11.00;56.36
10476;BME280;26166;48.264;11.436;2023-04-01T06:38:53;95015.56;;;10.98;56.38
10476;BME280;26166;48.264;11.436;2023-04-01T06:54:29;95023.25;;;10.99;55.69
10476;BME280;26166;48.264;11.436;2023-04-01T06:57:35;95026.06;;;10.98;55.83
10476;BME280;26166;48.264;11.436;2023-04-01T07:00:39;95028.09;;;10.96;55.54
10476;BME280;26166;48.264;11.436;2023-04-01T07:03:44;95045.09;;;11.00;55.35
10476;BME280;26166;48.264;11.436;2023-04-01T07:06:49;95019.22;;;11.03;55.28
10476;BME280;26166;48.264;11.436;2023-04-01T07:09:51;95014.56;;;11.05;54.80
10476;BME280;26166;48.264;11.436;2023-04-01T07:12:54;95033.38;;;11.02;54.96
10476;BME280;26166;48.264;11.436;2023-04-01T07:19:22;95030.16;;;11.07;54.89
10476;BME280;26166;48.264;11.436;2023-04-01T07:22:29;95031.75;;;11.08;55.11
10476;BME280;26166;48.264;11.436;2023-04-01T07:25:47;95022.06;;;11.08;55.01
10476;BME280;26166;48.264;11.436;2023-04-01T07:28:48;95028.94;;;11.09;55.13
10476;BME280;26166;48.264;11.436;2023-04-01T07:41:48;95034.78;;;11.05;55.49
10476;BME280;26166;48.264;11.436;2023-04-01T07:51:07;95021.84;;;11.10;54.77
10476;BME280;26166;48.264;11.436;2023-04-01T07:54:16;95043.09;;;11.15;54.52
10476;BME280;26166;48.264;11.436;2023-04-01T07:57:20;95042.69;;;11.18;54.27
10476;BME280;26166;48.264;11.436;2023-04-01T08:22:38;95035.00;;;11.10;54.49
10476;BME280;26166;48.264;11.436;2023-04-01T08:25:42;95019.03;;;11.11;54.51
10476;BME280;26166;48.264;11.436;2023-04-01T08:28:51;95017.63;;;11.16;54.62
10476;BME280;26166;48.264;11.436;2023-04-01T08:38:27;95017.22;;;11.19;54.00
10476;BME280;26166;48.264;11.436;2023-04-01T08:57:52;95006.09;;;11.23;53.72
10476;BME280;26166;48.264;11.436;2023-04-01T09:00:56;95011.19;;;11.25;53.73
10476;BME280;26166;48.264;11.436;2023-04-01T09:41:45;94990.53;;;11.28;53.59
10476;BME280;26166;48.264;11.436;2023-04-01T09:44:58;95002.69;;;11.29;53.12
10476;BME280;26166;48.264;11.436;2023-04-01T09:48:18;94997.44;;;11.29;52.73
10476;BME280;26166;48.264;11.436;2023-04-01T10:01:13;94970.72;;;11.32;53.06
10476;BME280;26166;48.264;11.436;2023-04-01T10:07:28;94986.50;;;11.32;53.16
10476;BME280;26166;48.264;11.436;2023-04-01T10:16:59;94967.28;;;11.39;53.64
10476;BME280;26166;48.264;11.436;2023-04-01T10:45:13;94978.81;;;11.57;54.10
10476;BME280;26166;48.264;11.436;2023-04-01T10:51:35;94977.97;;;11.70;54.22
10476;BME280;26166;48.264;11.436;2023-04-01T10:57:50;94984.25;;;11.76;54.59
10476;BME280;26166;48.264;11.436;2023-04-01T11:20:10;94999.22;;;11.75;56.62
10476;BME280;26166;48.264;11.436;2023-04-01T11:30:00;95007.50;;;11.72;57.03
10476;BME280;26166;48.264;11.436;2023-04-01T11:42:30;95037.06;;;11.68;59.07
10476;BME280;26166;48.264;11.436;2023-04-01T11:45:35;95022.91;;;11.69;58.83
10476;BME280;26166;48.264;11.436;2023-04-01T11:48:37;95027.75;;;11.65;58.88
10476;BME280;26166;48.264;11.436;2023-04-01T11:55:24;95028.34;;;11.67;59.33
10476;BME280;26166;48.264;11.436;2023-04-01T12:01:36;95028.97;;;11.69;59.61
10476;BME280;26166;48.264;11.436;2023-04-01T12:04:58;95024.72;;;11.68;59.80
10476;BME280;26166;48.264;11.436;2023-04-01T12:11:17;95034.00;;;11.64;59.63
10476;BME280;26166;48.264;11.436;2023-04-01T12:14:32;95031.81;;;11.61;59.52
10476;BME280;26166;48.264;11.436;2023-04-01T12:17:36;95028.56;;;11.59;59.32
10476;BME280;26166;48.264;11.436;2023-04-01T12:20:50;95033.22;;;11.57;59.56
10476;BME280;26166;48.264;11.436;2023-04-01T12:33:35;95030.59;;;11.57;60.08
10476;BME280;26166;48.264;11.436;2023-04-01T12:39:44;95025.72;;;11.54;59.41
10476;BME280;26166;48.264;11.436;2023-04-01T12:55:43;95036.47;;;11.52;59.47
10476;BME280;26166;48.264;11.436;2023-04-01T13:02:07;95036.66;;;11.51;59.30
10476;BME280;26166;48.264;11.436;2023-04-01T13:05:18;95034.00;;;11.51;58.93
10476;BME280;26166;48.264;11.436;2023-04-01T13:18:28;95058.50;;;11.45;59.23
10476;BME280;26166;48.264;11.436;2023-04-01T13:24:53;95053.63;;;11.42;59.40
10476;BME280;26166;48.264;11.436;2023-04-01T13:28:06;95047.56;;;11.41;59.99
10476;BME280;26166;48.264;11.436;2023-04-01T13:31:18;95048.38;;;11.42;59.84
10476;BME280;26166;48.264;11.436;2023-04-01T13:40:36;95061.34;;;11.43;60.58
10476;BME280;26166;48.264;11.436;2023-04-01T13:43:49;95051.63;;;11.44;60.52
10476;BME280;26166;48.264;11.436;2023-04-01T14:00:10;95060.53;;;11.43;61.14
10476;BME280;26166;48.264;11.436;2023-04-01T14:16:04;95042.13;;;11.43;60.96
10476;BME280;26166;48.264;11.436;2023-04-01T14:31:54;95056.09;;;11.43;60.73
10476;BME280;26166;48.264;11.436;2023-04-01T14:35:10;95050.63;;;11.38;60.67
10476;BME280;26166;48.264;11.436;2023-04-01T14:44:54;95057.69;;;11.31;60.64
10476;BME280;26166;48.264;11.436;2023-04-01T14:51:18;95062.53;;;11.34;60.57
10476;BME280;26166;48.264;11.436;2023-04-01T14:58:26;95065.16;;;11.41;60.39
10476;BME280;26166;48.264;11.436;2023-04-01T15:01:40;95061.34;;;11.43;60.43
10476;BME280;26166;48.264;11.436;2023-04-01T15:07:52;95070.63;;;11.46;60.30
10476;BME280;26166;48.264;11.436;2023-04-01T15:11:20;95068.63;;;11.48;60.84
10476;BME280;26166;48.264;11.436;2023-04-01T15:27:10;95076.72;;;11.59;60.55
10476;BME280;26166;48.264;11.436;2023-04-01T15:30:27;95076.53;;;11.61;59.88
10476;BME280;26166;48.264;11.436;2023-04-01T15:52:49;95084.81;;;11.65;57.88
10476;BME280;26166;48.264;11.436;2023-04-01T15:55:59;95081.97;;;11.66;57.54
10476;BME280;26166;48.264;11.436;2023-04-01T15:59:16;95087.25;;;11.66;57.68
10476;BME280;26166;48.264;11.436;2023-04-01T16:02:28;95090.91;;;11.65;57.07
10476;BME280;26166;48.264;11.436;2023-04-01T16:37:22;95103.41;;;11.63;56.76
10476;BME280;26166;48.264;11.436;2023-04-01T16:40:36;95098.97;;;11.63;56.64
10476;BME280;26166;48.264;11.436;2023-04-01T16:43:39;95094.94;;;11.61;56.51
10476;BME280;26166;48.264;11.436;2023-04-01T16:46:44;95110.72;;;11.61;56.31
10476;BME280;26166;48.264;11.436;2023-04-01T16:49:52;95102.19;;;11.59;56.48
10476;BME280;26166;48.264;11.436;2023-04-01T16:56:29;95103.22;;;11.58;56.63
10476;BME280;26166;48.264;11.436;2023-04-01T16:59:37;95118.19;;;11.57;56.53
10476;BME280;26166;48.264;11.436;2023-04-01T17:02:38;95108.69;;;11.56;56.55
10476;BME280;26166;48.264;11.436;2023-04-01T17:05:55;95117.38;;;11.57;56.38
10476;BME280;26166;48.264;11.436;2023-04-01T17:09:24;95116.38;;;11.58;56.71
10476;BME280;26166;48.264;11.436;2023-04-01T17:15:33;95112.13;;;11.57;56.18
10476;BME280;26166;48.264;11.436;2023-04-01T17:18:44;95124.66;;;11.55;55.85
10476;BME280;26166;48.264;11.436;2023-04-01T17:44:59;95132.94;;;11.45;54.82
10476;BME280;26166;48.264;11.436;2023-04-01T18:01:05;95150.53;;;11.45;55.13
10476;BME280;26166;48.264;11.436;2023-04-01T18:04:10;95155.78;;;11.45;55.03
10476;BME280;26166;48.264;11.436;2023-04-01T18:14:01;95161.69;;;11.47;54.72
10476;BME280;26166;48.264;11.436;2023-04-01T18:23:26;95174.63;;;11.48;55.17
10476;BME280;26166;48.264;11.436;2023-04-01T18:26:29;95181.69;;;11.48;55.03
10476;BME280;26166;48.264;11.436;2023-04-01T18:29:41;95179.06;;;11.48;55.17
10476;BME280;26166;48.264;11.436;2023-04-01T18:39:13;95190.41;;;11.48;55.31
10476;BME280;26166;48.264;11.436;2023-04-01T18:49:25;95202.13;;;11.52;55.74
10476;BME280;26166;48.264;11.436;2023-04-01T18:52:37;95198.72;;;11.52;55.62
10476;BME280;26166;48.264;11.436;2023-04-01T18:55:42;95209.41;;;11.50;55.74
10476;BME280;26166;48.264;11.436;2023-04-01T19:02:27;95206.19;;;11.48;55.91
10476;BME280;26166;48.264;11.436;2023-04-01T19:05:38;95212.44;;;11.47;56.13
10476;BME280;26166;48.264;11.436;2023-04-01T19:08:40;95216.06;;;11.46;55.79
10476;BME280;26166;48.264;11.436;2023-04-01T19:12:03;95227.41;;;11.47;55.97
10476;BME280;26166;48.264;11.436;2023-04-01T19:25:02;95235.31;;;11.47;56.06
10476;BME280;26166;48.264;11.436;2023-04-01T19:37:54;95247.00;;;11.44;56.18
10476;BME280;26166;48.264;11.436;2023-04-01T19:40:58;95241.75;;;11.44;55.78
10476;BME280;26166;48.264;11.436;2023-04-01T19:44:05;95251.47;;;11.44;55.87
10476;BME280;26166;48.264;11.436;2023-04-01T19:50:26;95247.81;;;11.45;55.70
10476;BME280;26166;48.264;11.436;2023-04-01T20:00:14;95267.63;;;11.41;56.17
10476;BME280;26166;48.264;11.436;2023-04-01T20:06:36;95271.28;;;11.40;56.18
10476;BME280;26166;48.264;11.436;2023-04-01T20:16:01;95279.16;;;11.40;56.10
10476;BME280;26166;48.264;11.436;2023-04-01T20:19:03;95280.34;;;11.37;55.89
10476;BME280;26166;48.264;11.436;2023-04-01T20:22:38;95288.06;;;11.39;56.16
10476;BME280;26166;48.264;11.436;2023-04-01T20:25:32;95281.38;;;11.36;56.18
10476;BME280;26166;48.264;11.436;2023-04-01T20:29:02;95280.56;;;11.35;56.47
10476;BME280;26166;48.264;11.436;2023-04-01T20:44:38;95287.25;;;11.38;56.34
10476;BME280;26166;48.264;11.436;2023-04-01T20:50:51;95302.19;;;11.37;56.40
10476;BME280;26166;48.264;11.436;2023-04-01T20:53:58;95301.22;;;11.39;56.10
10476;BME280;26166;48.264;11.436;2023-04-01T20:57:30;95305.44;;;11.40;56.61
10476;BME280;26166;48.264;11.436;2023-04-01T21:17:04;95317.97;;;11.37;55.93
10476;BME280;26166;48.264;11.436;2023-04-01T21:20:22;95320.59;;;11.37;55.96
10476;BME280;26166;48.264;11.436;2023-04-01T21:33:05;95331.31;;;11.36;56.29
10476;BME280;26166;48.264;11.436;2023-04-01T21:36:16;95325.47;;;11.34;56.42
10476;BME280;26166;48.264;11.436;2023-04-01T21:39:26;95328.25;;;11.32;56.23
10476;BME280;26166;48.264;11.436;2023-04-01T21:42:37;95328.66;;;11.29;56.44
10476;BME280;26166;48.264;11.436;2023-04-01T21:52:30;95335.09;;;11.27;56.39
10476;BME280;26166;48.264;11.436;2023-04-01T22:12:02;95351.50;;;11.29;56.91
10476;BME280;26166;48.264;11.436;2023-04-01T22:18:29;95357.16;;;11.26;56.62
10476;BME280;26166;48.264;11.436;2023-04-01T22:27:37;95362.84;;;11.29;56.96
10476;BME280;26166;48.264;11.436;2023-04-01T22:30:51;95367.09;;;11.30;56.87
10476;BME280;26166;48.264;11.436;2023-04-01T22:43:16;95353.13;;;11.30;57.05
10476;BME280;26166;48.264;11.436;2023-04-01T22:49:47;95359.81;;;11.32;57.33
10476;BME280;26166;48.264;11.436;2023-04-01T22:52:56;95365.88;;;11.33;57.03
10476;BME280;26166;48.264;11.436;2023-04-01T22:56:01;95366.72;;;11.33;57.25
10476;BME280;26166;48.264;11.436;2023-04-01T23:02:21;95370.31;;;11.32;57.32
10476;BME280;26166;48.264;11.436;2023-04-01T23:05:23;95364.25;;;11.32;57.15
10476;BME280;26166;48.264;11.436;2023-04-01T23:11:47;95374.97;;;11.30;57.40
10476;BME280;26166;48.264;11.436;2023-04-01T23:14:53;95374.78;;;11.32;56.95
10476;BME280;26166;48.264;11.436;2023-04-01T23:27:38;95387.69;;;11.27;57.17
10476;BME280;26166;48.264;11.436;2023-04-01T23:33:40;95384.69;;;11.30;57.08
10476;BME280;26166;48.264;11.436;2023-04-01T23:36:47;95388.31;;;11.29;57.25
10476;BME280;26166;48.264;11.436;2023-04-01T23:39:49;95384.84;;;11.28;56.89
10476;BME280;26166;48.264;11.436;2023-04-01T23:42:50;95395.38;;;11.28;56.95
10476;BME280;26166;48.264;11.436;2023-04-01T23:45:50;95394.38;;;11.29;57.07
10476;BME280;26166;48.264;11.436;2023-04-01T23:48:52;95397.41;;;11.26;56.73
10476;BME280;26166;48.264;11.436;2023-04-01T23:51:57;95403.47;;;11.27;56.97
10476;BME280;26166;48.264;11.436;2023-04-01T23:55:08;95405.28;;;11.26;56.77
